createdAt,value
2018-07-14T00:02:02.840Z,69.34
2018-07-14T00:04:31.510Z,69.86
2018-07-14T00:07:00.173Z,69.86
2018-07-14T00:09:28.950Z,69.24
2018-07-14T00:11:57.599Z,69.35
2018-07-14T00:14:26.633Z,70.11
2018-07-14T00:16:55.788Z,70.21
2018-07-14T00:19:24.444Z,70.39
2018-07-14T00:21:53.425Z,70.38
2018-07-14T00:24:23.548Z,71.44
2018-07-14T00:26:52.815Z,71.95
2018-07-14T00:29:21.469Z,72.26
2018-07-14T00:31:50.145Z,72.62
2018-07-14T00:34:18.801Z,71.96
2018-07-14T00:36:47.485Z,72.21
2018-07-14T00:39:16.114Z,72.00
2018-07-14T00:41:45.136Z,72.49
2018-07-14T00:44:13.849Z,71.91
2018-07-14T00:46:43.169Z,72.55
2018-07-14T00:49:12.392Z,72.55
2018-07-14T00:51:41.556Z,72.34
2018-07-14T00:54:10.168Z,72.68
2018-07-14T00:56:38.861Z,73.18
2018-07-14T00:59:07.843Z,73.00
2018-07-14T01:01:36.907Z,73.14
2018-07-14T01:04:05.569Z,73.23
2018-07-14T01:06:34.338Z,73.21
2018-07-14T01:09:03.184Z,74.31
2018-07-14T01:11:32.134Z,73.72
2018-07-14T01:14:01.039Z,74.05
2018-07-14T01:16:30.000Z,74.88
2018-07-14T01:18:58.620Z,74.36
2018-07-14T01:21:27.685Z,74.27
2018-07-14T01:23:56.368Z,74.34
2018-07-14T01:26:25.074Z,74.36
2018-07-14T01:28:54.246Z,74.73
2018-07-14T01:31:23.019Z,73.92
2018-07-14T01:33:51.690Z,74.10
2018-07-14T01:36:20.304Z,73.85
2018-07-14T01:38:49.221Z,74.42
2018-07-14T01:41:18.198Z,73.73
2018-07-14T01:43:47.806Z,74.55
2018-07-14T01:46:16.516Z,73.98
2018-07-14T01:48:45.177Z,74.02
2018-07-14T01:51:14.230Z,74.26
2018-07-14T01:53:43.430Z,74.31
2018-07-14T01:56:12.324Z,74.37
2018-07-14T01:58:41.007Z,74.20
2018-07-14T02:01:09.925Z,74.35
2018-07-14T02:03:39.327Z,74.41
2018-07-14T02:06:07.985Z,74.41
2018-07-14T02:08:36.701Z,75.06
2018-07-14T02:11:05.668Z,74.83
2018-07-14T02:13:34.364Z,75.29
2018-07-14T02:16:03.072Z,75.87
2018-07-14T02:18:32.655Z,76.06
2018-07-14T02:21:01.580Z,76.01
2018-07-14T02:23:30.299Z,75.46
2018-07-14T02:25:58.892Z,75.35
2018-07-14T02:28:27.492Z,75.51
2018-07-14T02:30:56.142Z,75.58
2018-07-14T02:33:25.923Z,75.96
2018-07-14T02:35:55.116Z,76.13
2018-07-14T02:38:24.266Z,75.39
2018-07-14T02:40:52.900Z,76.06
2018-07-14T02:43:22.197Z,75.62
2018-07-14T02:45:51.081Z,75.86
2018-07-14T02:48:19.719Z,76.76
2018-07-14T02:50:48.658Z,76.77
2018-07-14T02:53:17.591Z,76.58
2018-07-14T02:55:46.577Z,76.76
2018-07-14T02:58:15.213Z,76.37
2018-07-14T03:00:44.235Z,77.01
2018-07-14T03:03:13.482Z,76.99
2018-07-14T03:05:42.237Z,76.87
2018-07-14T03:08:11.816Z,77.32
2018-07-14T03:10:40.511Z,77.40
2018-07-14T03:13:09.148Z,77.91
2018-07-14T03:15:37.846Z,77.56
2018-07-14T03:18:07.093Z,77.67
2018-07-14T03:20:36.066Z,77.87
2018-07-14T03:23:04.934Z,77.73
2018-07-14T03:25:33.624Z,77.49
2018-07-14T03:28:02.241Z,77.76
2018-07-14T03:30:30.881Z,77.16
2018-07-14T03:32:59.546Z,77.37
2018-07-14T03:35:28.920Z,77.88
2018-07-14T03:37:57.532Z,76.65
2018-07-14T03:40:26.204Z,77.03
2018-07-14T03:42:55.657Z,77.06
2018-07-14T03:45:24.618Z,77.76
2018-07-14T03:47:53.243Z,78.00
2018-07-14T03:50:21.850Z,78.00
2018-07-14T03:52:50.779Z,78.41
2018-07-14T03:55:19.435Z,77.81
2018-07-14T03:57:48.114Z,77.60
2018-07-14T04:00:16.809Z,77.78
2018-07-14T04:02:45.771Z,77.54
2018-07-14T04:05:14.402Z,78.28
2018-07-14T04:07:43.095Z,77.83
2018-07-14T04:10:12.057Z,78.00
2018-07-14T04:12:40.695Z,77.89
2018-07-14T04:15:09.322Z,78.79
2018-07-14T04:17:37.948Z,78.20
2018-07-14T04:20:06.931Z,78.51
2018-07-14T04:22:35.569Z,78.75
2018-07-14T04:25:04.488Z,78.71
2018-07-14T04:27:33.786Z,78.85
2018-07-14T04:30:02.468Z,78.66
2018-07-14T04:32:31.087Z,78.80
2018-07-14T04:35:00.054Z,79.12
2018-07-14T04:37:29.071Z,79.03
2018-07-14T04:39:58.092Z,79.03
2018-07-14T04:42:26.901Z,78.96
2018-07-14T04:44:55.852Z,79.29
2018-07-14T04:47:25.220Z,79.34
2018-07-14T04:49:53.905Z,79.86
2018-07-14T04:52:23.139Z,80.09
2018-07-14T04:54:51.817Z,80.24
2018-07-14T04:57:20.753Z,79.65
2018-07-14T04:59:49.721Z,79.24
2018-07-14T05:02:18.632Z,79.35
2018-07-14T05:04:47.324Z,79.55
2018-07-14T05:07:16.934Z,78.85
2018-07-14T05:09:46.571Z,79.38
2018-07-14T05:12:17.242Z,80.88
2018-07-14T05:14:46.713Z,80.07
2018-07-14T05:17:16.803Z,80.35
2018-07-14T05:19:45.859Z,80.08
2018-07-14T05:22:16.504Z,80.29
2018-07-14T05:24:46.286Z,80.26
2018-07-14T05:27:15.149Z,81.13
2018-07-14T05:29:43.767Z,79.13
2018-07-14T05:32:12.426Z,79.63
2018-07-14T05:34:41.008Z,78.28
2018-07-14T05:37:09.953Z,79.41
2018-07-14T05:39:38.618Z,79.19
2018-07-14T05:42:07.268Z,79.63
2018-07-14T05:44:35.928Z,78.27
2018-07-14T05:47:04.590Z,78.58
2018-07-14T05:49:33.362Z,78.01
2018-07-14T05:52:02.092Z,77.43
2018-07-14T05:54:30.730Z,78.24
2018-07-14T05:56:59.388Z,76.83
2018-07-14T05:59:27.986Z,76.75
2018-07-14T06:01:56.644Z,76.91
2018-07-14T06:04:25.258Z,76.58
2018-07-14T06:06:54.294Z,77.42
2018-07-14T06:09:23.064Z,76.55
2018-07-14T06:11:51.711Z,74.61
2018-07-14T06:14:21.235Z,75.65
2018-07-14T06:16:50.247Z,74.69
2018-07-14T06:19:18.905Z,75.55
2018-07-14T06:21:48.473Z,76.01
2018-07-14T06:24:17.184Z,76.19
2018-07-14T06:26:45.871Z,75.11
2018-07-14T06:29:14.556Z,74.86
2018-07-14T06:31:43.212Z,74.17
2018-07-14T06:34:11.852Z,75.19
2018-07-14T06:36:40.688Z,74.52
2018-07-14T06:39:09.642Z,70.88
2018-07-14T06:41:38.296Z,73.99
2018-07-14T06:44:06.958Z,74.26
2018-07-14T06:46:36.020Z,72.88
2018-07-14T06:49:04.641Z,73.37
2018-07-14T06:51:33.354Z,75.07
2018-07-14T06:54:02.269Z,76.49
2018-07-14T06:56:30.956Z,74.80
2018-07-14T06:58:59.806Z,74.43
2018-07-14T07:01:28.776Z,75.11
2018-07-14T07:03:57.999Z,72.85
2018-07-14T07:06:26.850Z,71.93
2018-07-14T07:08:55.827Z,71.47
2018-07-14T07:11:26.012Z,69.68
2018-07-14T07:13:58.575Z,68.90
2018-07-14T07:16:28.101Z,66.62
2018-07-14T07:18:56.863Z,66.27
2018-07-14T07:21:26.385Z,63.96
2018-07-14T07:23:55.980Z,66.15
2018-07-14T07:26:25.533Z,64.29
2018-07-14T07:28:55.747Z,63.55
2018-07-14T07:31:25.341Z,61.50
2018-07-14T07:33:57.018Z,62.17
2018-07-14T07:38:54.058Z,59.72
2018-07-14T07:41:22.699Z,61.80
2018-07-14T07:43:51.736Z,62.12
2018-07-14T07:46:20.711Z,63.79
2018-07-14T07:48:49.454Z,62.59
2018-07-14T07:51:18.303Z,62.60
2018-07-14T07:53:46.961Z,60.71
2018-07-14T07:56:16.812Z,61.62
2018-07-14T07:58:45.504Z,62.80
2018-07-14T08:01:14.180Z,60.13
2018-07-14T08:03:43.502Z,57.77
2018-07-14T08:06:12.580Z,58.98
2018-07-14T08:08:41.293Z,58.88
2018-07-14T08:11:10.074Z,61.02
2018-07-14T08:13:39.067Z,59.86
2018-07-14T08:16:08.205Z,58.74
2018-07-14T08:18:38.098Z,59.12
2018-07-14T08:21:07.889Z,59.63
2018-07-14T08:23:36.947Z,54.64
2018-07-14T08:26:05.969Z,55.37
2018-07-14T08:28:34.858Z,55.56
2018-07-14T08:31:03.614Z,55.20
2018-07-14T08:33:32.687Z,59.54
2018-07-14T08:36:02.625Z,58.41
2018-07-14T08:38:31.373Z,56.49
2018-07-14T08:41:00.129Z,58.80
2018-07-14T08:43:28.884Z,52.90
2018-07-14T08:45:57.556Z,52.87
2018-07-14T08:48:26.215Z,52.28
2018-07-14T08:50:56.579Z,52.79
2018-07-14T08:53:25.277Z,49.96
2018-07-14T08:55:54.159Z,50.98
2018-07-14T08:58:26.975Z,51.20
2018-07-14T09:00:56.021Z,50.47
2018-07-14T09:03:25.188Z,47.95
2018-07-14T09:05:56.827Z,49.88
2018-07-14T09:08:26.151Z,49.35
2018-07-14T09:11:00.177Z,49.96
2018-07-14T09:13:28.830Z,50.01
2018-07-14T09:15:57.546Z,50.25
2018-07-14T09:18:26.545Z,50.70
2018-07-14T09:20:55.331Z,48.98
2018-07-14T09:23:24.039Z,46.27
2018-07-14T09:25:52.682Z,47.97
2018-07-14T09:28:21.702Z,45.86
2018-07-14T09:30:50.510Z,44.43
2018-07-14T09:33:19.534Z,46.89
2018-07-14T09:35:49.007Z,46.13
2018-07-14T09:38:18.994Z,45.38
2018-07-14T09:40:48.161Z,47.45
2018-07-14T09:43:18.021Z,48.76
2018-07-14T09:45:48.746Z,48.92
2018-07-14T09:48:17.741Z,48.99
2018-07-14T09:50:46.412Z,52.20
2018-07-14T09:53:15.051Z,52.20
2018-07-14T09:55:44.543Z,52.04
2018-07-14T09:58:14.692Z,53.83
2018-07-14T10:00:49.111Z,53.98
2018-07-14T10:03:17.787Z,53.61
2018-07-14T10:05:46.958Z,52.98
2018-07-14T10:08:16.361Z,53.36
2018-07-14T10:10:45.130Z,52.84
2018-07-14T10:13:13.884Z,50.84
2018-07-14T10:15:42.559Z,53.05
2018-07-14T10:18:11.278Z,54.30
2018-07-14T10:20:40.288Z,53.96
2018-07-14T10:23:09.081Z,54.17
2018-07-14T10:25:37.815Z,53.42
2018-07-14T10:28:06.555Z,52.75
2018-07-14T10:30:35.574Z,51.69
2018-07-14T10:33:04.282Z,51.90
2018-07-14T10:35:35.599Z,51.54
2018-07-14T10:38:04.661Z,52.32
2018-07-14T10:40:33.415Z,49.87
2018-07-14T10:43:02.799Z,51.42
2018-07-14T10:45:31.649Z,50.86
2018-07-14T10:48:00.395Z,49.32
2018-07-14T10:50:29.192Z,46.33
2018-07-14T10:52:58.563Z,48.12
2018-07-14T10:55:29.452Z,43.83
2018-07-14T10:57:58.147Z,41.30
2018-07-14T11:00:27.615Z,45.08
2018-07-14T11:02:56.437Z,47.76
2018-07-14T11:05:25.379Z,47.69
2018-07-14T11:07:55.526Z,47.36
2018-07-14T11:10:24.516Z,48.97
2018-07-14T11:12:53.303Z,49.79
2018-07-14T11:15:22.064Z,48.37
2018-07-14T11:17:50.954Z,49.20
2018-07-14T11:20:19.867Z,48.11
2018-07-14T11:22:48.835Z,50.28
2018-07-14T11:25:17.583Z,50.55
2018-07-14T11:27:46.344Z,50.96
2018-07-14T11:30:15.452Z,46.10
2018-07-14T11:32:45.633Z,48.75
2018-07-14T11:35:15.377Z,49.26
2018-07-14T11:37:44.775Z,50.42
2018-07-14T11:40:14.430Z,49.99
2018-07-14T11:42:44.119Z,47.41
2018-07-14T11:45:13.806Z,44.42
2018-07-14T11:47:42.516Z,44.58
2018-07-14T11:50:11.446Z,43.55
2018-07-14T11:52:40.160Z,39.36
2018-07-14T11:55:09.238Z,42.61
2018-07-14T11:57:37.920Z,43.37
2018-07-14T12:00:07.525Z,42.89
2018-07-14T12:02:36.170Z,43.39
2018-07-14T12:05:05.271Z,41.86
2018-07-14T12:07:34.050Z,40.53
2018-07-14T12:10:05.473Z,39.95
2018-07-14T12:12:34.789Z,36.58
2018-07-14T12:15:04.347Z,32.28
2018-07-14T12:17:33.090Z,29.02
2018-07-14T12:20:02.031Z,26.20
2018-07-14T12:22:30.846Z,23.18
2018-07-14T12:24:59.746Z,22.73
2018-07-14T12:27:28.549Z,24.14
2018-07-14T12:29:57.529Z,23.57
2018-07-14T12:32:26.524Z,20.97
2018-07-14T12:34:55.524Z,22.56
2018-07-14T12:37:24.220Z,20.19
2018-07-14T12:39:52.938Z,20.38
2018-07-14T12:42:24.952Z,19.33
2018-07-14T12:44:53.948Z,21.72
2018-07-14T12:47:22.658Z,18.61
2018-07-14T12:49:51.390Z,19.20
2018-07-14T12:52:20.546Z,22.14
2018-07-14T12:54:49.463Z,21.30
2018-07-14T12:57:18.115Z,21.17
2018-07-14T12:59:46.909Z,17.25
2018-07-14T13:02:15.926Z,19.77
2018-07-14T13:04:45.891Z,17.65
2018-07-14T13:07:14.780Z,18.35
2018-07-14T13:09:43.440Z,17.42
2018-07-14T13:12:15.557Z,19.81
2018-07-14T13:14:44.508Z,18.22
2018-07-14T13:17:13.429Z,17.96
2018-07-14T13:19:42.184Z,17.58
2018-07-14T13:22:13.688Z,17.19
2018-07-14T13:24:42.339Z,20.30
2018-07-14T13:27:11.113Z,18.69
2018-07-14T13:29:40.262Z,20.56
2018-07-14T13:32:08.970Z,20.67
2018-07-14T13:34:37.875Z,19.79
2018-07-14T13:37:06.926Z,17.28
2018-07-14T13:39:36.235Z,19.42
2018-07-14T13:42:05.356Z,16.85
2018-07-14T13:44:34.126Z,20.05
2018-07-14T13:47:03.057Z,18.33
2018-07-14T13:49:32.389Z,18.22
2018-07-14T13:52:01.238Z,19.27
2018-07-14T13:54:30.310Z,19.18
2018-07-14T13:56:59.301Z,16.58
2018-07-14T13:59:28.275Z,18.92
2018-07-14T14:01:57.279Z,17.52
2018-07-14T14:04:26.001Z,17.93
2018-07-14T14:06:55.060Z,16.89
2018-07-14T14:09:24.706Z,20.63
2018-07-14T14:11:54.097Z,16.43
2018-07-14T14:14:23.136Z,17.60
2018-07-14T14:16:52.332Z,18.96
2018-07-14T14:19:21.180Z,20.48
2018-07-14T14:21:50.030Z,21.24
2018-07-14T14:24:18.714Z,21.38
2018-07-14T14:26:47.966Z,22.64
2018-07-14T14:29:16.752Z,23.67
2018-07-14T14:31:47.004Z,24.32
2018-07-14T14:34:15.798Z,24.86
2018-07-14T14:36:45.402Z,25.28
2018-07-14T14:39:14.051Z,26.17
2018-07-14T14:41:43.655Z,27.15
2018-07-14T14:44:12.362Z,28.03
2018-07-14T14:46:41.432Z,28.97
2018-07-14T14:49:10.116Z,29.84
2018-07-14T14:51:38.877Z,30.24
2018-07-14T14:54:07.598Z,32.12
2018-07-14T14:56:36.583Z,32.65
2018-07-14T14:59:05.625Z,33.26
2018-07-14T15:01:34.627Z,35.01
2018-07-14T15:04:03.385Z,35.24
2018-07-14T15:06:32.913Z,36.29
2018-07-14T15:09:01.707Z,36.43
2018-07-14T15:11:32.261Z,37.77
2018-07-14T15:14:00.978Z,37.91
2018-07-14T15:16:30.653Z,37.80
2018-07-14T15:18:59.960Z,38.48
2018-07-14T15:21:29.098Z,39.28
2018-07-14T15:23:58.086Z,39.41
2018-07-14T15:26:27.014Z,39.97
2018-07-14T15:28:56.587Z,39.64
2018-07-14T15:31:25.244Z,40.40
2018-07-14T15:33:53.896Z,40.22
2018-07-14T15:36:22.615Z,39.72
2018-07-14T15:38:51.671Z,40.39
2018-07-14T15:41:20.357Z,41.00
2018-07-14T15:43:49.150Z,40.78
2018-07-14T15:46:17.829Z,41.05
2018-07-14T15:48:46.549Z,41.77
2018-07-14T15:51:15.242Z,41.55
2018-07-14T15:53:44.119Z,41.57
2018-07-14T15:56:12.814Z,42.28
2018-07-14T15:58:41.621Z,42.18
2018-07-14T16:01:10.310Z,42.74
2018-07-14T16:03:39.881Z,42.58
2018-07-14T16:06:09.285Z,43.02
2018-07-14T16:08:38.059Z,43.47
2018-07-14T16:11:07.742Z,43.98
2018-07-14T16:13:36.687Z,43.21
2018-07-14T16:16:06.175Z,43.18
2018-07-14T16:18:34.990Z,43.98
2018-07-14T16:21:04.226Z,43.20
2018-07-14T16:23:32.944Z,44.29
2018-07-14T16:26:01.869Z,44.52
2018-07-14T16:28:30.596Z,44.09
2018-07-14T16:30:59.305Z,44.72
2018-07-14T16:33:28.401Z,44.99
2018-07-14T16:35:57.176Z,45.50
2018-07-14T16:38:25.808Z,45.34
2018-07-14T16:40:54.771Z,45.16
2018-07-14T16:43:23.798Z,45.39
2018-07-14T16:45:52.574Z,45.27
2018-07-14T16:48:21.601Z,45.37
2018-07-14T16:50:50.386Z,45.73
2018-07-14T16:53:19.427Z,45.40
2018-07-14T16:55:48.237Z,45.22
2018-07-14T16:58:17.247Z,45.58
2018-07-14T17:00:46.099Z,45.86
2018-07-14T17:03:14.860Z,45.88
2018-07-14T17:05:43.677Z,45.26
2018-07-14T17:08:12.668Z,45.81
2018-07-14T17:10:43.140Z,46.35
2018-07-14T17:13:12.405Z,45.63
2018-07-14T17:15:41.396Z,46.26
2018-07-14T17:18:11.151Z,45.85
2018-07-14T17:20:39.885Z,45.92
2018-07-14T17:23:13.497Z,46.19
2018-07-14T17:25:42.252Z,46.79
2018-07-14T17:28:11.006Z,46.10
2018-07-14T17:30:40.012Z,47.01
2018-07-14T17:33:08.719Z,47.08
2018-07-14T17:35:37.579Z,46.40
2018-07-14T17:38:06.635Z,47.09
2018-07-14T17:40:35.337Z,47.51
2018-07-14T17:43:04.104Z,47.28
2018-07-14T17:45:34.151Z,47.64
2018-07-14T17:48:02.865Z,47.01
2018-07-14T17:50:31.882Z,47.24
2018-07-14T17:53:00.920Z,47.87
2018-07-14T17:55:29.685Z,47.26
2018-07-14T17:57:58.834Z,47.83
2018-07-14T18:00:27.544Z,47.57
2018-07-14T18:02:56.825Z,47.42
2018-07-14T18:05:25.576Z,47.59
2018-07-14T18:07:54.349Z,48.10
2018-07-14T18:10:23.261Z,48.09
2018-07-14T18:12:51.935Z,47.67
2018-07-14T18:15:20.649Z,48.21
2018-07-14T18:17:49.601Z,48.22
2018-07-14T18:20:18.731Z,48.49
2018-07-14T18:22:47.490Z,48.57
2018-07-14T18:25:16.262Z,48.62
2018-07-14T18:27:44.950Z,48.51
2018-07-14T18:30:13.683Z,48.97
2018-07-14T18:32:42.656Z,48.52
2018-07-14T18:35:11.408Z,47.98
2018-07-14T18:37:40.511Z,48.91
2018-07-14T18:40:09.189Z,48.66
2018-07-14T18:42:37.977Z,48.88
2018-07-14T18:45:06.700Z,49.01
2018-07-14T18:47:35.854Z,48.72
2018-07-14T18:50:04.760Z,49.48
2018-07-14T18:52:34.425Z,49.36
2018-07-14T18:55:03.279Z,49.10
2018-07-14T18:57:31.965Z,49.26
2018-07-14T19:00:00.996Z,48.73
2018-07-14T19:02:29.812Z,48.46
2018-07-14T19:04:59.085Z,49.01
2018-07-14T19:07:28.086Z,48.96
2018-07-14T19:09:56.756Z,49.70
2018-07-14T19:12:25.799Z,48.83
2018-07-14T19:14:54.516Z,49.12
2018-07-14T19:17:23.912Z,49.38
2018-07-14T19:19:52.734Z,49.99
2018-07-14T19:22:21.970Z,49.74
2018-07-14T19:24:50.752Z,49.67
2018-07-14T19:27:19.502Z,49.68
2018-07-14T19:29:48.527Z,50.34
2018-07-14T19:32:17.232Z,50.91
2018-07-14T19:34:45.861Z,51.15
2018-07-14T19:37:16.348Z,50.85
2018-07-14T19:39:45.437Z,50.99
2018-07-14T19:42:14.258Z,50.99
2018-07-14T19:44:43.307Z,50.52
2018-07-14T19:47:12.021Z,50.61
2018-07-14T19:49:41.093Z,50.84
2018-07-14T19:52:09.783Z,51.42
2018-07-14T19:54:38.753Z,51.06
2018-07-14T19:57:07.891Z,50.86
2018-07-14T19:59:36.627Z,51.31
2018-07-14T20:02:05.641Z,51.44
2018-07-14T20:04:34.269Z,51.21
2018-07-14T20:07:02.907Z,51.75
2018-07-14T20:09:31.619Z,51.50
2018-07-14T20:12:00.847Z,51.77
2018-07-14T20:14:30.196Z,52.40
2018-07-14T20:16:58.887Z,52.40
2018-07-14T20:19:27.553Z,52.49
2018-07-14T20:21:57.334Z,52.01
2018-07-14T20:24:26.567Z,52.14
2018-07-14T20:26:55.272Z,53.03
2018-07-14T20:29:23.977Z,53.42
2018-07-14T20:31:52.689Z,52.94
2018-07-14T20:34:21.358Z,53.72
2018-07-14T20:36:50.451Z,53.44
2018-07-14T20:39:19.498Z,53.19
2018-07-14T20:41:48.326Z,54.11
2018-07-14T20:44:17.344Z,53.76
2018-07-14T20:46:46.138Z,53.53
2018-07-14T20:49:14.846Z,53.41
2018-07-14T20:51:44.316Z,54.02
2018-07-14T20:54:13.036Z,54.19
2018-07-14T20:56:41.831Z,54.33
2018-07-14T20:59:10.563Z,54.52
2018-07-14T21:01:39.791Z,54.75
2018-07-14T21:04:08.786Z,54.44
2018-07-14T21:06:37.527Z,54.53
2018-07-14T21:09:07.052Z,55.11
2018-07-14T21:11:35.942Z,55.45
2018-07-14T21:14:04.714Z,54.67
2018-07-14T21:16:33.758Z,54.78
2018-07-14T21:19:02.895Z,53.72
2018-07-14T21:21:31.679Z,54.50
2018-07-14T21:24:00.472Z,54.31
2018-07-14T21:26:29.380Z,54.42
2018-07-14T21:28:58.610Z,55.12
2018-07-14T21:31:27.340Z,54.77
2018-07-14T21:33:56.166Z,54.59
2018-07-14T21:36:24.989Z,54.45
2018-07-14T21:38:54.079Z,53.82
2018-07-14T21:41:23.124Z,53.71
2018-07-14T21:43:51.812Z,54.05
2018-07-14T21:46:20.622Z,53.50
2018-07-14T21:48:49.468Z,53.98
2018-07-14T21:51:18.326Z,53.42
2018-07-14T21:53:48.315Z,53.48
2018-07-14T21:56:17.028Z,54.15
2018-07-14T21:58:45.936Z,53.36
2018-07-14T22:01:20.017Z,53.03
2018-07-14T22:03:49.454Z,53.79
2018-07-14T22:06:18.198Z,53.32
2018-07-14T22:08:46.941Z,53.38
2018-07-14T22:11:15.921Z,53.87
2018-07-14T22:13:45.225Z,53.77
2018-07-14T22:16:14.177Z,53.93
2018-07-14T22:18:42.931Z,53.63
2018-07-14T22:21:11.742Z,54.48
2018-07-14T22:23:40.720Z,54.44
2018-07-14T22:26:14.598Z,54.57
2018-07-14T22:28:44.223Z,54.33
2018-07-14T22:31:13.213Z,54.55
2018-07-14T22:33:44.223Z,54.69
2018-07-14T22:36:12.956Z,54.24
2018-07-14T22:38:42.658Z,54.76
2018-07-14T22:41:12.415Z,54.56
2018-07-14T22:43:41.203Z,54.46
2018-07-14T22:46:12.517Z,54.64
2018-07-14T22:48:42.073Z,55.81
2018-07-14T22:51:12.139Z,55.30
2018-07-14T22:53:40.855Z,55.78
2018-07-14T22:56:09.454Z,55.97
2018-07-14T22:58:38.816Z,56.28
2018-07-14T23:01:07.660Z,56.55
2018-07-14T23:03:36.448Z,55.97
2018-07-14T23:06:06.772Z,56.76
2018-07-14T23:08:36.395Z,56.31
2018-07-14T23:11:06.877Z,56.49
2018-07-14T23:13:36.624Z,57.11
2018-07-14T23:16:06.053Z,57.06
2018-07-14T23:18:35.080Z,57.95
2018-07-14T23:21:03.731Z,57.83
2018-07-14T23:23:32.831Z,58.39
2018-07-14T23:26:01.510Z,57.98
2018-07-14T23:28:30.191Z,57.88
2018-07-14T23:30:58.835Z,57.92
2018-07-14T23:33:27.479Z,58.31
2018-07-14T23:35:56.917Z,58.01
2018-07-14T23:38:25.860Z,58.75
2018-07-14T23:40:54.559Z,58.70
2018-07-14T23:43:23.213Z,58.43
2018-07-14T23:45:51.899Z,58.38
2018-07-14T23:48:21.056Z,58.64
2018-07-14T23:50:49.691Z,58.33
2018-07-14T23:53:18.392Z,58.34
2018-07-14T23:55:47.014Z,59.04
2018-07-14T23:58:15.698Z,58.45
